Time;durP1;ratioP1;P1;durP2;ratioP2;P2;SDS_P1;SDS_P2;PMS_P1;PMS_P2;Temp;Humidity;BMP_temperature;BMP_pressure;BME280_temperature;BME280_humidity;BME280_pressure;Samples;Min_cycle;Max_cycle;Signal;HPM_P1;HPM_P2
2022/06/16 00:02:13;;;;;;;;;;;23.00;76.20;;;;;;5094101;28;20121;-82
2022/06/16 00:04:45;;;;;;;;;;;22.90;76.20;;;;;;5097069;28;20412;-82
2022/06/16 00:07:13;;;;;;;;;;;22.90;76.30;;;;;;5097748;28;20390;-82
2022/06/16 00:09:40;;;;;;;;;;;22.90;76.30;;;;;;5099113;28;20416;-82
2022/06/16 00:12:09;;;;;;;;;;;22.80;76.30;;;;;;5079208;28;19931;-82
2022/06/16 00:14:37;;;;;;;;;;;22.80;76.40;;;;;;5081327;28;20014;-82
2022/06/16 00:17:04;;;;;;;;;;;22.80;76.50;;;;;;5102653;28;19951;-82
2022/06/16 00:19:31;;;;;;;;;;;22.70;76.60;;;;;;5076601;28;19978;-82
2022/06/16 00:21:58;;;;;;;;;;;22.70;76.60;;;;;;5097066;28;19924;-82
2022/06/16 00:24:27;;;;;;;;;;;22.70;76.80;;;;;;5081118;28;19924;-82
2022/06/16 00:26:55;;;;;;;;;;;22.60;76.60;;;;;;5084650;28;19991;-82
2022/06/16 00:29:23;;;;;;;;;;;;;;;;;;5078249;28;19967;-79
2022/06/16 00:31:52;;;;;;;;;;;22.60;76.20;;;;;;5103986;28;19970;-80
2022/06/16 00:34:19;;;;;;;;;;;22.50;76.80;;;;;;5079965;28;19930;-80
2022/06/16 00:36:46;;;;;;;;;;;22.50;76.80;;;;;;5076819;28;19936;-82
2022/06/16 00:39:13;;;;;;;;;;;22.50;76.90;;;;;;5098680;28;19931;-82
2022/06/16 00:41:40;;;;;;;;;;;22.40;76.80;;;;;;5101250;28;19925;-82
2022/06/16 00:44:14;;;;;;;;;;;22.40;77.00;;;;;;5077097;28;20329;-82
2022/06/16 00:46:41;;;;;;;;;;;22.40;77.00;;;;;;5086469;28;19924;-82
2022/06/16 00:49:13;;;;;;;;;;;22.40;77.00;;;;;;5079218;28;20004;-82
2022/06/16 00:51:42;;;;;;;;;;;22.30;77.00;;;;;;5076201;28;19924;-82
2022/06/16 00:54:12;;;;;;;;;;;22.30;77.10;;;;;;5093597;28;19931;-82
2022/06/16 00:56:40;;;;;;;;;;;22.30;77.30;;;;;;5083853;28;20661;-81
2022/06/16 00:59:07;;;;;;;;;;;22.20;77.10;;;;;;5098233;28;20430;-82
2022/06/16 01:01:35;;;;;;;;;;;22.20;77.20;;;;;;5081803;28;19932;-82
2022/06/16 01:06:48;;;;;;;;;;;22.10;76.70;;;;;;5101845;28;19920;-82
2022/06/16 01:09:17;;;;;;;;;;;22.10;77.30;;;;;;5073558;28;19943;-82
2022/06/16 01:15:01;;;;;;;;;;;22.00;77.20;;;;;;5078246;28;20011;-82
2022/06/16 01:17:32;;;;;;;;;;;22.00;77.30;;;;;;5096740;28;19928;-81
2022/06/16 01:19:59;;;;;;;;;;;;;;;;;;5095819;28;19959;-82
2022/06/16 01:22:33;;;;;;;;;;;21.90;76.70;;;;;;5079056;28;19932;-82
2022/06/16 01:25:12;;;;;;;;;;;21.90;77.40;;;;;;5100114;28;19962;-82
2022/06/16 01:27:54;;;;;;;;;;;21.80;77.30;;;;;;5080056;28;19924;-82
2022/06/16 01:30:27;;;;;;;;;;;21.80;77.30;;;;;;5095465;28;20447;-81
2022/06/16 01:33:01;;;;;;;;;;;21.80;77.40;;;;;;5081109;28;19991;-82
2022/06/16 01:35:32;;;;;;;;;;;21.80;77.40;;;;;;5078605;28;19951;-82
2022/06/16 01:38:04;;;;;;;;;;;21.70;77.40;;;;;;5089261;28;19932;-81
2022/06/16 01:40:37;;;;;;;;;;;21.70;77.40;;;;;;5107855;28;19953;-81
2022/06/16 01:43:09;;;;;;;;;;;21.70;77.40;;;;;;5089412;28;19928;-80
2022/06/16 01:45:41;;;;;;;;;;;21.60;77.40;;;;;;5084450;28;19928;-81
2022/06/16 01:48:14;;;;;;;;;;;21.60;77.60;;;;;;5100054;28;19931;-80
2022/06/16 01:50:43;;;;;;;;;;;21.60;77.60;;;;;;5083041;28;19924;-79
2022/06/16 01:53:13;;;;;;;;;;;21.50;77.60;;;;;;5079679;28;19924;-80
2022/06/16 01:55:50;;;;;;;;;;;21.50;77.70;;;;;;5082867;28;19983;-80
2022/06/16 01:58:21;;;;;;;;;;;21.50;77.70;;;;;;5084446;28;19970;-80
2022/06/16 02:00:56;;;;;;;;;;;21.40;77.60;;;;;;5078368;28;19924;-81
2022/06/16 02:03:26;;;;;;;;;;;21.40;77.60;;;;;;5084761;28;19928;-81
2022/06/16 02:05:55;;;;;;;;;;;21.40;77.70;;;;;;5085327;28;19924;-81
2022/06/16 02:08:24;;;;;;;;;;;21.40;77.80;;;;;;5097082;28;20388;-81
2022/06/16 02:10:53;;;;;;;;;;;21.30;77.80;;;;;;5082188;28;19970;-80
2022/06/16 02:13:26;;;;;;;;;;;21.30;77.80;;;;;;5083441;28;20356;-81
2022/06/16 02:15:58;;;;;;;;;;;21.30;78.00;;;;;;5079771;28;20023;-80
2022/06/16 02:18:26;;;;;;;;;;;21.30;78.10;;;;;;5101618;28;19938;-81
2022/06/16 02:20:56;;;;;;;;;;;21.30;78.20;;;;;;5097713;28;19943;-80
2022/06/16 02:23:23;;;;;;;;;;;21.20;78.30;;;;;;5099102;28;19932;-81
2022/06/16 02:25:53;;;;;;;;;;;21.20;78.30;;;;;;5097272;28;19925;-80
2022/06/16 02:28:20;;;;;;;;;;;21.20;78.30;;;;;;5084503;28;20061;-81
2022/06/16 02:31:02;;;;;;;;;;;21.10;78.20;;;;;;5094390;28;19931;-80
2022/06/16 02:33:34;;;;;;;;;;;21.10;78.30;;;;;;5080902;28;19932;-81
2022/06/16 02:36:06;;;;;;;;;;;21.10;78.30;;;;;;5097921;28;19924;-80
2022/06/16 02:38:46;;;;;;;;;;;21.00;78.30;;;;;;5089849;28;19977;-81
2022/06/16 02:41:19;;;;;;;;;;;21.00;78.40;;;;;;5097401;28;20297;-80
2022/06/16 02:43:56;;;;;;;;;;;21.00;78.50;;;;;;5097556;28;19932;-80
2022/06/16 02:46:33;;;;;;;;;;;21.00;78.50;;;;;;5081123;28;19939;-80
2022/06/16 02:49:03;;;;;;;;;;;20.90;78.50;;;;;;5094394;28;19924;-81
2022/06/16 02:51:36;;;;;;;;;;;20.90;78.50;;;;;;5094470;28;19924;-80
2022/06/16 02:54:08;;;;;;;;;;;;;;;;;;5078408;28;19936;-80
2022/06/16 02:56:41;;;;;;;;;;;20.80;78.00;;;;;;5077077;28;20416;-80
2022/06/16 02:59:13;;;;;;;;;;;20.80;78.50;;;;;;5071797;28;19924;-81
2022/06/16 03:01:41;;;;;;;;;;;20.80;78.60;;;;;;5054479;28;19979;-80
2022/06/16 03:04:09;;;;;;;;;;;20.80;78.60;;;;;;5098817;28;19931;-80
2022/06/16 03:06:36;;;;;;;;;;;20.70;78.60;;;;;;5076901;28;19951;-81
2022/06/16 03:09:05;;;;;;;;;;;20.70;78.60;;;;;;5093262;28;20023;-80
2022/06/16 03:11:32;;;;;;;;;;;20.70;78.60;;;;;;5077862;28;19924;-81
2022/06/16 03:14:02;;;;;;;;;;;20.70;78.70;;;;;;5077482;28;19924;-81
2022/06/16 03:16:38;;;;;;;;;;;20.60;78.60;;;;;;5076309;28;19949;-81
2022/06/16 03:19:07;;;;;;;;;;;20.60;78.70;;;;;;5077506;28;19924;-81
2022/06/16 03:24:17;;;;;;;;;;;20.60;78.80;;;;;;5097015;28;20003;-80
2022/06/16 03:26:45;;;;;;;;;;;20.50;78.60;;;;;;5072977;28;19928;-81
2022/06/16 03:29:12;;;;;;;;;;;20.50;78.80;;;;;;5079082;28;19934;-80
2022/06/16 03:31:39;;;;;;;;;;;20.50;78.60;;;;;;5076281;28;20354;-80
2022/06/16 03:34:08;;;;;;;;;;;20.50;78.80;;;;;;5071225;28;19969;-81
2022/06/16 03:36:38;;;;;;;;;;;20.50;78.90;;;;;;5076992;28;19924;-81
2022/06/16 03:39:09;;;;;;;;;;;;;;;;;;5075690;28;19928;-81
2022/06/16 03:41:47;;;;;;;;;;;20.40;78.30;;;;;;5075787;28;19928;-80
2022/06/16 03:44:15;;;;;;;;;;;20.40;78.90;;;;;;5072277;28;19977;-81
2022/06/16 03:46:44;;;;;;;;;;;20.30;78.40;;;;;;5093798;28;19939;-80
2022/06/16 03:49:16;;;;;;;;;;;20.30;79.00;;;;;;5068446;28;20280;-81
2022/06/16 03:51:49;;;;;;;;;;;20.30;79.10;;;;;;5072556;28;20306;-81
2022/06/16 03:54:23;;;;;;;;;;;20.30;79.10;;;;;;5071937;28;19925;-81
2022/06/16 03:56:57;;;;;;;;;;;20.20;79.10;;;;;;5073824;28;20264;-80
2022/06/16 03:59:24;;;;;;;;;;;20.20;79.10;;;;;;5076886;28;19924;-81
2022/06/16 04:01:56;;;;;;;;;;;20.20;79.10;;;;;;5070253;28;19939;-81
2022/06/16 04:04:28;;;;;;;;;;;20.10;79.20;;;;;;5068519;28;20034;-81
2022/06/16 04:09:52;;;;;;;;;;;20.10;79.20;;;;;;5069048;28;20397;-81
2022/06/16 04:12:19;;;;;;;;;;;20.10;79.20;;;;;;5069839;28;19967;-82
2022/06/16 04:14:46;;;;;;;;;;;20.00;79.30;;;;;;5071824;28;19939;-82
2022/06/16 04:17:13;;;;;;;;;;;20.00;79.30;;;;;;5074039;28;19932;-82
2022/06/16 04:22:40;;;;;;;;;;;20.00;79.40;;;;;;5085907;28;19924;-82
2022/06/16 04:25:14;;;;;;;;;;;19.90;79.40;;;;;;5085000;28;19924;-81
2022/06/16 04:27:45;;;;;;;;;;;19.90;79.40;;;;;;5060608;28;19924;-80
2022/06/16 04:30:14;;;;;;;;;;;19.90;79.80;;;;;;5071687;28;19932;-81
2022/06/16 04:32:41;;;;;;;;;;;19.90;80.00;;;;;;5075871;28;19932;-81
2022/06/16 04:35:12;;;;;;;;;;;19.80;80.00;;;;;;5092131;28;20430;-80
2022/06/16 04:37:51;;;;;;;;;;;19.80;79.70;;;;;;5089599;28;20421;-81
2022/06/16 04:40:18;;;;;;;;;;;19.80;79.50;;;;;;5078434;28;20018;-81
2022/06/16 04:42:45;;;;;;;;;;;19.80;79.30;;;;;;5075498;28;19982;-81
2022/06/16 04:45:14;;;;;;;;;;;19.80;79.40;;;;;;5079631;28;20271;-80
2022/06/16 04:47:43;;;;;;;;;;;19.80;79.40;;;;;;5089875;28;19924;-80
2022/06/16 04:50:17;;;;;;;;;;;19.70;79.20;;;;;;5077183;28;19924;-81
2022/06/16 04:52:45;;;;;;;;;;;19.70;79.20;;;;;;5092998;28;19939;-80
2022/06/16 04:55:13;;;;;;;;;;;19.70;79.10;;;;;;5096951;28;19924;-81
2022/06/16 04:58:03;;;;;;;;;;;19.70;79.20;;;;;;5094735;28;19924;-81
2022/06/16 05:01:00;;;;;;;;;;;19.70;79.30;;;;;;5023561;28;19926;-80
2022/06/16 05:03:48;;;;;;;;;;;19.60;79.30;;;;;;5097563;28;19931;-80
2022/06/16 05:06:35;;;;;;;;;;;19.60;79.30;;;;;;5080125;28;19924;-80
2022/06/16 05:09:28;;;;;;;;;;;19.60;79.30;;;;;;5077142;28;19931;-81
2022/06/16 05:12:15;;;;;;;;;;;19.60;80.10;;;;;;5095442;28;19958;-81
2022/06/16 05:15:01;;;;;;;;;;;19.60;79.50;;;;;;5097857;28;19966;-80
2022/06/16 05:17:47;;;;;;;;;;;19.60;79.50;;;;;;5092841;28;19925;-81
2022/06/16 05:20:33;;;;;;;;;;;19.60;79.60;;;;;;5093999;28;20019;-81
2022/06/16 05:23:30;;;;;;;;;;;19.60;79.70;;;;;;5079047;28;20491;-81
2022/06/16 05:26:23;;;;;;;;;;;19.50;79.80;;;;;;5069724;28;19928;-81
2022/06/16 05:29:08;;;;;;;;;;;19.50;79.90;;;;;;5097738;28;19935;-81
2022/06/16 05:31:57;;;;;;;;;;;19.50;80.00;;;;;;5093198;28;20486;-80
2022/06/16 05:34:48;;;;;;;;;;;19.50;80.10;;;;;;5088520;28;19924;-81
2022/06/16 05:37:38;;;;;;;;;;;19.50;80.20;;;;;;5105053;28;19924;-80
2022/06/16 05:40:39;;;;;;;;;;;19.50;80.30;;;;;;5064575;28;19924;-80
2022/06/16 05:43:24;;;;;;;;;;;19.50;80.40;;;;;;5102166;28;19931;-81
2022/06/16 05:46:16;;;;;;;;;;;19.50;80.50;;;;;;5092934;28;19932;-80
2022/06/16 05:48:53;;;;;;;;;;;19.50;80.70;;;;;;5076082;28;19967;-80
2022/06/16 05:51:22;;;;;;;;;;;19.50;80.80;;;;;;5080708;28;19928;-79
2022/06/16 05:54:06;;;;;;;;;;;19.50;80.90;;;;;;5081484;28;19959;-80
2022/06/16 05:56:56;;;;;;;;;;;19.50;81.00;;;;;;5098414;28;19924;-81
2022/06/16 05:59:23;;;;;;;;;;;19.50;81.00;;;;;;5100202;28;19931;-81
2022/06/16 06:01:51;;;;;;;;;;;19.50;81.00;;;;;;5097397;28;19924;-80
2022/06/16 06:04:19;;;;;;;;;;;19.50;81.00;;;;;;5082896;28;19928;-81
2022/06/16 06:06:47;;;;;;;;;;;19.50;81.00;;;;;;5082129;28;19924;-80
2022/06/16 06:17:36;;;;;;;;;;;19.50;81.10;;;;;;5096182;28;20385;-80
2022/06/16 06:20:03;;;;;;;;;;;19.50;81.10;;;;;;5097233;28;20301;-80
2022/06/16 06:22:33;;;;;;;;;;;19.50;81.00;;;;;;5095947;28;19982;-80
2022/06/16 06:25:09;;;;;;;;;;;19.50;81.00;;;;;;5100432;28;20394;-81
2022/06/16 06:27:39;;;;;;;;;;;19.50;80.90;;;;;;5078141;28;19935;-80
2022/06/16 06:30:08;;;;;;;;;;;19.50;80.70;;;;;;5098809;28;19940;-80
2022/06/16 06:32:37;;;;;;;;;;;19.50;80.60;;;;;;5094917;28;19924;-81
2022/06/16 06:35:08;;;;;;;;;;;19.50;80.50;;;;;;5100134;28;19931;-80
2022/06/16 06:37:35;;;;;;;;;;;19.50;80.40;;;;;;5084375;28;19924;-80
2022/06/16 06:40:03;;;;;;;;;;;19.50;80.50;;;;;;5080600;28;19932;-81
2022/06/16 06:42:30;;;;;;;;;;;19.50;80.50;;;;;;5082492;28;19935;-80
2022/06/16 06:44:58;;;;;;;;;;;19.50;80.40;;;;;;5099686;28;19931;-81
2022/06/16 06:47:29;;;;;;;;;;;19.50;80.20;;;;;;5073577;28;19932;-81
2022/06/16 06:49:56;;;;;;;;;;;19.50;80.30;;;;;;5100549;28;20449;-81
2022/06/16 06:52:23;;;;;;;;;;;19.50;80.60;;;;;;5091377;28;19940;-81
2022/06/16 06:54:50;;;;;;;;;;;19.50;81.20;;;;;;5084960;28;19970;-81
2022/06/16 06:57:19;;;;;;;;;;;19.60;81.60;;;;;;5099693;28;19928;-81
2022/06/16 06:59:49;;;;;;;;;;;19.60;82.30;;;;;;5099851;28;19924;-81
2022/06/16 07:02:18;;;;;;;;;;;19.60;82.80;;;;;;5080167;28;19962;-81
2022/06/16 07:04:46;;;;;;;;;;;19.60;83.50;;;;;;5080633;28;19924;-81
2022/06/16 07:07:15;;;;;;;;;;;19.60;83.60;;;;;;5074669;28;19985;-81
2022/06/16 07:09:43;;;;;;;;;;;19.70;83.90;;;;;;5075986;28;19934;-81
2022/06/16 07:12:16;;;;;;;;;;;19.70;83.90;;;;;;5095332;28;19970;-81
2022/06/16 07:14:44;;;;;;;;;;;19.70;83.80;;;;;;5093789;28;19939;-80
2022/06/16 07:17:12;;;;;;;;;;;19.70;83.90;;;;;;5090978;28;20026;-81
2022/06/16 07:19:40;;;;;;;;;;;19.70;84.10;;;;;;5074626;28;19934;-82
2022/06/16 07:22:08;;;;;;;;;;;19.80;84.30;;;;;;5074036;28;19928;-81
2022/06/16 07:24:36;;;;;;;;;;;19.80;84.40;;;;;;5075414;28;20409;-81
2022/06/16 07:27:04;;;;;;;;;;;19.80;84.60;;;;;;5093062;28;19932;-81
2022/06/16 07:29:30;;;;;;;;;;;19.80;84.70;;;;;;5078410;28;20022;-81
2022/06/16 07:32:00;;;;;;;;;;;19.80;85.60;;;;;;5071739;28;19973;-81
2022/06/16 07:34:27;;;;;;;;;;;19.90;85.60;;;;;;5077381;28;19931;-81
2022/06/16 07:36:55;;;;;;;;;;;19.90;86.90;;;;;;5093151;28;20275;-81
2022/06/16 07:39:24;;;;;;;;;;;19.90;87.70;;;;;;5071214;28;20397;-81
2022/06/16 07:41:51;;;;;;;;;;;20.00;88.00;;;;;;5090726;28;19978;-81
2022/06/16 07:44:18;;;;;;;;;;;20.00;88.30;;;;;;5095659;28;20299;-81
2022/06/16 07:46:47;;;;;;;;;;;20.00;88.40;;;;;;5075892;28;19932;-81
2022/06/16 07:49:16;;;;;;;;;;;20.10;88.90;;;;;;5090443;28;20287;-81
2022/06/16 07:51:43;;;;;;;;;;;20.10;89.00;;;;;;5093543;28;22717;-82
2022/06/16 07:54:12;;;;;;;;;;;20.10;89.10;;;;;;5099958;28;19931;-81
2022/06/16 07:56:39;;;;;;;;;;;20.10;88.80;;;;;;5096098;28;19970;-81
2022/06/16 07:59:06;;;;;;;;;;;20.10;88.70;;;;;;5089404;28;20409;-81
2022/06/16 08:01:35;;;;;;;;;;;20.10;88.70;;;;;;5092049;28;19931;-81
2022/06/16 08:04:05;;;;;;;;;;;20.20;88.70;;;;;;5096319;28;19942;-80
2022/06/16 08:06:35;;;;;;;;;;;20.20;88.70;;;;;;5096782;28;19924;-81
2022/06/16 08:09:02;;;;;;;;;;;20.20;88.80;;;;;;5093305;28;19928;-81
2022/06/16 08:14:15;;;;;;;;;;;20.30;88.80;;;;;;5088732;28;19989;-81
2022/06/16 08:16:43;;;;;;;;;;;20.30;89.10;;;;;;5074717;28;19929;-81
2022/06/16 08:19:14;;;;;;;;;;;20.30;89.30;;;;;;5091983;28;20710;-81
2022/06/16 08:21:41;;;;;;;;;;;20.30;89.40;;;;;;5096729;28;19935;-81
2022/06/16 08:24:08;;;;;;;;;;;20.40;89.30;;;;;;5092913;28;20018;-81
2022/06/16 08:26:37;;;;;;;;;;;20.40;89.20;;;;;;5095239;28;19931;-81
2022/06/16 08:29:09;;;;;;;;;;;20.40;89.20;;;;;;5101340;28;19928;-81
2022/06/16 08:31:37;;;;;;;;;;;20.50;89.40;;;;;;5100489;28;19932;-81
2022/06/16 08:34:04;;;;;;;;;;;20.50;88.90;;;;;;5102041;28;19950;-81
2022/06/16 08:36:31;;;;;;;;;;;20.50;88.70;;;;;;5103885;28;19996;-81
2022/06/16 08:38:58;;;;;;;;;;;20.60;87.10;;;;;;5098766;28;20394;-81
2022/06/16 08:41:28;;;;;;;;;;;20.60;85.10;;;;;;5081840;28;19924;-81
2022/06/16 08:44:06;;;;;;;;;;;20.60;84.00;;;;;;5100310;28;19924;-82
2022/06/16 08:46:35;;;;;;;;;;;20.60;83.10;;;;;;5098157;28;19931;-81
2022/06/16 08:49:06;;;;;;;;;;;20.60;82.50;;;;;;5096397;28;19987;-81
2022/06/16 08:51:42;;;;;;;;;;;20.70;82.10;;;;;;5098214;28;19924;-81
2022/06/16 08:54:20;;;;;;;;;;;20.70;81.40;;;;;;5099676;28;20295;-81
2022/06/16 08:56:50;;;;;;;;;;;20.70;81.00;;;;;;5101115;28;19943;-81
2022/06/16 08:59:24;;;;;;;;;;;20.80;81.10;;;;;;5102802;28;19924;-81
2022/06/16 09:01:56;;;;;;;;;;;20.80;81.00;;;;;;5080310;28;19928;-81
2022/06/16 09:04:25;;;;;;;;;;;20.80;81.00;;;;;;5105301;28;19955;-81
2022/06/16 09:06:58;;;;;;;;;;;20.90;81.20;;;;;;5100961;28;19951;-81
2022/06/16 09:12:22;;;;;;;;;;;20.90;80.30;;;;;;5099979;28;19920;-81
2022/06/16 09:15:13;;;;;;;;;;;21.00;80.50;;;;;;5101753;28;19924;-81
2022/06/16 09:17:46;;;;;;;;;;;21.00;80.10;;;;;;5081329;28;19920;-81
2022/06/16 09:20:16;;;;;;;;;;;21.00;80.80;;;;;;5093393;28;20033;-83
2022/06/16 09:22:55;;;;;;;;;;;21.00;81.20;;;;;;5078565;28;19989;-83
2022/06/16 09:25:35;;;;;;;;;;;21.00;81.40;;;;;;5099148;28;20019;-83
2022/06/16 09:28:05;;;;;;;;;;;21.10;81.50;;;;;;5095827;28;19939;-80
2022/06/16 09:30:37;;;;;;;;;;;21.10;81.10;;;;;;5093589;28;19932;-81
2022/06/16 09:33:07;;;;;;;;;;;21.10;80.80;;;;;;5105081;28;19924;-80
2022/06/16 09:35:39;;;;;;;;;;;21.20;80.40;;;;;;5106786;28;19951;-81
2022/06/16 09:38:09;;;;;;;;;;;21.20;80.30;;;;;;5110541;28;19986;-81
2022/06/16 09:40:40;;;;;;;;;;;21.20;80.20;;;;;;5100863;28;19924;-79
2022/06/16 09:43:10;;;;;;;;;;;21.20;79.70;;;;;;5104745;28;19932;-81
2022/06/16 09:45:42;;;;;;;;;;;21.30;80.20;;;;;;5090782;28;19936;-81
2022/06/16 09:48:13;;;;;;;;;;;21.30;80.10;;;;;;5103334;28;20091;-81
2022/06/16 09:50:43;;;;;;;;;;;21.30;79.70;;;;;;5100113;28;19925;-81
2022/06/16 09:53:13;;;;;;;;;;;21.40;79.70;;;;;;5105017;28;19931;-81
2022/06/16 09:55:41;;;;;;;;;;;21.40;79.60;;;;;;5102172;28;19928;-81
2022/06/16 09:58:12;;;;;;;;;;;21.40;79.70;;;;;;5078988;28;19947;-80
2022/06/16 10:00:40;;;;;;;;;;;21.40;80.10;;;;;;5084816;28;19932;-81
2022/06/16 10:03:16;;;;;;;;;;;21.40;80.20;;;;;;5100639;28;19928;-81
2022/06/16 10:05:47;;;;;;;;;;;21.40;80.20;;;;;;5081610;28;19928;-81
2022/06/16 10:08:18;;;;;;;;;;;21.50;80.50;;;;;;5100164;28;19930;-81
2022/06/16 10:10:47;;;;;;;;;;;21.50;80.50;;;;;;5099193;28;19924;-80
2022/06/16 10:13:25;;;;;;;;;;;21.50;80.60;;;;;;5101903;28;19967;-81
2022/06/16 10:16:03;;;;;;;;;;;21.60;80.60;;;;;;5094982;28;19927;-81
2022/06/16 10:18:30;;;;;;;;;;;21.60;80.90;;;;;;5079723;28;19981;-81
2022/06/16 10:21:02;;;;;;;;;;;21.60;79.80;;;;;;5101100;28;19954;-80
2022/06/16 10:23:31;;;;;;;;;;;21.70;79.60;;;;;;5099524;28;19924;-81
2022/06/16 10:26:00;;;;;;;;;;;21.70;79.70;;;;;;5094141;28;19924;-81
2022/06/16 10:28:29;;;;;;;;;;;21.70;79.20;;;;;;5082381;28;19928;-81
2022/06/16 10:30:59;;;;;;;;;;;21.70;78.90;;;;;;5099887;28;19939;-81
2022/06/16 10:33:27;;;;;;;;;;;21.80;78.20;;;;;;5095710;28;19932;-81
2022/06/16 10:35:56;;;;;;;;;;;21.80;78.70;;;;;;5080779;28;19935;-81
2022/06/16 10:38:32;;;;;;;;;;;21.80;77.30;;;;;;5103380;28;19931;-81
2022/06/16 10:41:00;;;;;;;;;;;21.80;76.40;;;;;;5099852;28;19946;-81
2022/06/16 10:43:29;;;;;;;;;;;21.90;76.80;;;;;;5093193;28;20559;-81
2022/06/16 10:46:01;;;;;;;;;;;21.80;77.10;;;;;;5098582;28;19924;-81
2022/06/16 10:48:32;;;;;;;;;;;21.90;77.30;;;;;;5094563;28;19939;-81
2022/06/16 10:51:07;;;;;;;;;;;21.90;75.90;;;;;;5069797;28;20008;-81
2022/06/16 10:53:37;;;;;;;;;;;21.90;75.30;;;;;;5094092;28;19924;-81
2022/06/16 10:56:10;;;;;;;;;;;21.90;76.20;;;;;;5076371;28;20367;-81
2022/06/16 10:58:44;;;;;;;;;;;22.00;75.70;;;;;;5097920;28;20399;-81
2022/06/16 11:01:16;;;;;;;;;;;22.00;75.10;;;;;;5095264;28;19924;-81
2022/06/16 11:03:46;;;;;;;;;;;22.00;75.10;;;;;;5081281;28;19935;-80
2022/06/16 11:06:13;;;;;;;;;;;22.10;74.80;;;;;;5094997;28;19924;-80
2022/06/16 11:08:43;;;;;;;;;;;22.10;75.00;;;;;;5098606;28;19924;-81
2022/06/16 11:11:11;;;;;;;;;;;22.10;75.70;;;;;;5093073;28;19947;-81
2022/06/16 11:13:40;;;;;;;;;;;22.10;76.20;;;;;;5095234;28;19931;-82
2022/06/16 11:16:09;;;;;;;;;;;22.10;76.30;;;;;;5096145;28;19924;-82
2022/06/16 11:18:39;;;;;;;;;;;22.20;76.80;;;;;;5077545;28;19924;-82
2022/06/16 11:21:16;;;;;;;;;;;22.20;77.00;;;;;;5096338;28;19924;-81
2022/06/16 11:23:44;;;;;;;;;;;22.20;76.20;;;;;;5095767;28;20154;-81
2022/06/16 11:26:19;;;;;;;;;;;22.30;76.30;;;;;;5074294;28;19924;-82
2022/06/16 11:28:50;;;;;;;;;;;22.30;76.90;;;;;;5097068;28;20382;-81
2022/06/16 11:31:18;;;;;;;;;;;22.40;76.50;;;;;;5076534;28;20618;-81
2022/06/16 11:36:47;;;;;;;;;;;22.50;76.10;;;;;;5096395;28;20360;-81
2022/06/16 11:39:18;;;;;;;;;;;22.50;76.10;;;;;;5091201;28;19924;-82
2022/06/16 11:41:49;;;;;;;;;;;22.50;76.10;;;;;;5079529;28;20105;-81
2022/06/16 11:44:21;;;;;;;;;;;22.60;75.90;;;;;;5101742;28;19949;-81
2022/06/16 11:46:52;;;;;;;;;;;22.60;76.30;;;;;;5104712;28;19931;-81
2022/06/16 11:49:28;;;;;;;;;;;22.70;76.90;;;;;;5076000;28;19925;-81
2022/06/16 11:51:59;;;;;;;;;;;22.80;77.50;;;;;;5098915;28;20006;-81
2022/06/16 11:54:34;;;;;;;;;;;22.80;77.90;;;;;;5084375;28;20003;-81
2022/06/16 11:57:06;;;;;;;;;;;22.80;78.40;;;;;;5096493;28;19924;-81
2022/06/16 11:59:49;;;;;;;;;;;22.90;78.30;;;;;;5099110;28;19924;-81
2022/06/16 12:02:22;;;;;;;;;;;22.90;78.60;;;;;;5102088;28;19924;-81
2022/06/16 12:05:00;;;;;;;;;;;23.00;78.70;;;;;;5096233;28;19924;-81
2022/06/16 12:08:00;;;;;;;;;;;23.00;78.70;;;;;;5101549;28;19928;-81
2022/06/16 12:10:37;;;;;;;;;;;23.00;78.80;;;;;;5076764;28;20031;-82
2022/06/16 12:13:08;;;;;;;;;;;23.10;79.10;;;;;;5096041;28;20384;-81
2022/06/16 12:15:38;;;;;;;;;;;23.10;78.80;;;;;;5098751;28;20022;-81
2022/06/16 12:18:13;;;;;;;;;;;23.20;78.10;;;;;;5102412;28;19924;-81
2022/06/16 12:20:47;;;;;;;;;;;23.20;77.30;;;;;;5098006;28;19932;-81
2022/06/16 12:23:15;;;;;;;;;;;23.30;76.40;;;;;;5093829;28;19934;-81
2022/06/16 12:25:48;;;;;;;;;;;23.30;76.40;;;;;;5082943;28;19931;-81
2022/06/16 12:28:21;;;;;;;;;;;23.40;76.60;;;;;;5097847;28;19924;-81
2022/06/16 12:30:52;;;;;;;;;;;23.40;75.90;;;;;;5097919;28;19950;-81
2022/06/16 12:33:23;;;;;;;;;;;23.50;74.50;;;;;;5098176;28;19924;-81
2022/06/16 12:35:54;;;;;;;;;;;23.50;73.70;;;;;;5076099;28;19924;-81
2022/06/16 12:38:24;;;;;;;;;;;23.50;73.50;;;;;;5093041;28;19925;-80
2022/06/16 12:40:52;;;;;;;;;;;23.60;73.10;;;;;;5096795;28;19933;-80
2022/06/16 12:43:27;;;;;;;;;;;23.60;73.70;;;;;;5093709;28;19930;-81
2022/06/16 12:45:56;;;;;;;;;;;23.70;74.40;;;;;;5079075;28;19933;-81
2022/06/16 12:48:25;;;;;;;;;;;23.70;73.60;;;;;;5097553;28;20318;-81
2022/06/16 12:50:55;;;;;;;;;;;23.80;74.10;;;;;;5096073;28;19924;-81
2022/06/16 12:53:24;;;;;;;;;;;23.80;74.50;;;;;;5090643;28;19939;-81
2022/06/16 12:55:54;;;;;;;;;;;23.80;74.40;;;;;;5096653;28;19930;-81
2022/06/16 12:58:24;;;;;;;;;;;23.90;73.10;;;;;;5095502;28;20314;-80
2022/06/16 13:00:53;;;;;;;;;;;23.90;73.20;;;;;;5091090;28;19924;-81
2022/06/16 13:03:21;;;;;;;;;;;24.00;73.40;;;;;;5097406;28;19924;-80
2022/06/16 13:05:49;;;;;;;;;;;24.00;72.60;;;;;;5095273;28;19934;-80
2022/06/16 13:08:19;;;;;;;;;;;24.00;73.50;;;;;;5090727;28;19924;-80
2022/06/16 13:10:46;;;;;;;;;;;;;;;;;;5091612;28;19932;-80
2022/06/16 13:13:21;;;;;;;;;;;24.10;73.40;;;;;;5095629;28;19969;-81
2022/06/16 13:15:49;;;;;;;;;;;24.10;74.30;;;;;;5092236;28;19925;-81
2022/06/16 13:18:17;;;;;;;;;;;24.20;72.90;;;;;;5073227;28;19931;-81
2022/06/16 13:20:46;;;;;;;;;;;24.20;72.10;;;;;;5093075;28;19928;-81
2022/06/16 13:23:16;;;;;;;;;;;24.20;73.00;;;;;;5075400;28;21033;-81
2022/06/16 13:25:49;;;;;;;;;;;24.40;73.20;;;;;;5094134;28;19924;-81
2022/06/16 13:28:17;;;;;;;;;;;24.40;72.90;;;;;;5096108;28;19928;-81
2022/06/16 13:30:58;;;;;;;;;;;24.40;73.10;;;;;;5094358;28;19928;-81
2022/06/16 13:33:33;;;;;;;;;;;24.50;71.50;;;;;;5104008;28;19912;-81
2022/06/16 13:36:17;;;;;;;;;;;24.50;70.40;;;;;;5108661;28;19932;-81
2022/06/16 13:38:45;;;;;;;;;;;24.60;71.60;;;;;;5083954;28;20405;-80
2022/06/16 13:41:42;;;;;;;;;;;24.60;71.60;;;;;;5083686;28;19928;-80
2022/06/16 13:44:16;;;;;;;;;;;25.00;90.80;;;;;;5098269;28;20019;-81
2022/06/16 13:46:57;;;;;;;;;;;24.70;71.40;;;;;;5092805;28;19969;-81
2022/06/16 13:49:28;;;;;;;;;;;24.70;93.30;;;;;;5088265;28;19932;-81
2022/06/16 13:52:05;;;;;;;;;;;24.90;92.90;;;;;;5095025;28;19983;-81
2022/06/16 13:54:34;;;;;;;;;;;24.90;71.30;;;;;;5098461;28;19924;-81
2022/06/16 13:57:16;;;;;;;;;;;24.90;71.10;;;;;;5098838;28;19931;-81
2022/06/16 13:59:45;;;;;;;;;;;25.00;70.40;;;;;;5095158;28;19969;-80
2022/06/16 14:02:16;;;;;;;;;;;25.00;70.30;;;;;;5099355;28;20065;-81
2022/06/16 14:04:51;;;;;;;;;;;25.00;69.60;;;;;;5097384;28;19928;-80
2022/06/16 14:07:18;;;;;;;;;;;25.10;69.20;;;;;;5077013;28;19928;-81
2022/06/16 14:09:53;;;;;;;;;;;25.20;69.20;;;;;;5096970;28;19977;-81
2022/06/16 14:12:21;;;;;;;;;;;25.30;69.30;;;;;;5099163;28;20302;-81
2022/06/16 14:15:07;;;;;;;;;;;25.30;70.30;;;;;;5079354;28;20347;-81
2022/06/16 14:17:35;;;;;;;;;;;25.30;70.10;;;;;;5074172;28;19928;-81
2022/06/16 14:20:06;;;;;;;;;;;25.40;70.80;;;;;;5096871;28;19963;-81
2022/06/16 14:22:39;;;;;;;;;;;25.40;70.60;;;;;;5091358;28;19959;-81
2022/06/16 14:25:11;;;;;;;;;;;25.40;70.20;;;;;;5098399;28;19995;-81
2022/06/16 14:27:43;;;;;;;;;;;25.50;70.40;;;;;;5076257;28;19968;-81
2022/06/16 14:30:12;;;;;;;;;;;25.60;69.00;;;;;;5094589;28;19924;-81
2022/06/16 14:32:44;;;;;;;;;;;25.60;68.30;;;;;;5097529;28;19927;-81
2022/06/16 14:35:14;;;;;;;;;;;25.60;68.90;;;;;;5090969;28;20215;-81
2022/06/16 14:37:43;;;;;;;;;;;25.70;68.70;;;;;;5075339;28;19924;-81
2022/06/16 14:40:17;;;;;;;;;;;25.70;68.30;;;;;;5088831;28;19924;-79
2022/06/16 14:42:45;;;;;;;;;;;25.80;68.40;;;;;;5073118;28;19924;-80
2022/06/16 14:45:19;;;;;;;;;;;25.80;69.00;;;;;;5094263;28;19961;-83
2022/06/16 14:47:51;;;;;;;;;;;25.80;68.10;;;;;;5090894;28;19988;-82
2022/06/16 14:50:22;;;;;;;;;;;25.80;68.10;;;;;;5090455;28;19924;-83
2022/06/16 14:52:53;;;;;;;;;;;25.90;68.30;;;;;;5092732;28;20545;-83
2022/06/16 14:55:21;;;;;;;;;;;25.90;68.00;;;;;;5088839;28;19924;-83
2022/06/16 14:57:49;;;;;;;;;;;26.00;67.80;;;;;;5074095;28;19924;-83
2022/06/16 15:00:24;;;;;;;;;;;26.00;67.60;;;;;;5090433;28;19928;-81
2022/06/16 15:02:53;;;;;;;;;;;26.00;67.10;;;;;;5087528;28;19954;-81
2022/06/16 15:05:19;;;;;;;;;;;26.10;67.60;;;;;;5091119;28;19924;-82
2022/06/16 15:07:48;;;;;;;;;;;26.10;67.40;;;;;;5092273;28;19967;-81
2022/06/16 15:10:16;;;;;;;;;;;26.10;67.40;;;;;;5088805;28;19931;-81
2022/06/16 15:12:46;;;;;;;;;;;26.20;68.10;;;;;;5087433;28;19970;-80
2022/06/16 15:15:16;;;;;;;;;;;26.20;67.40;;;;;;5069218;28;19924;-81
2022/06/16 15:20:30;;;;;;;;;;;26.30;67.70;;;;;;5064762;28;19939;-81